createdAt,value
2022-11-02T00:00:23.932Z,69883.59
2022-11-02T00:02:51.306Z,69882.72
2022-11-02T00:05:23.897Z,69873.34
2022-11-02T00:07:55.362Z,69883.03
2022-11-02T00:10:23.809Z,69883.00
2022-11-02T00:12:52.326Z,69876.88
2022-11-02T00:15:19.824Z,69915.22
2022-11-02T00:17:50.436Z,69886.56
2022-11-02T00:20:19.423Z,69823.97
2022-11-02T00:22:49.911Z,69876.91
2022-11-02T00:25:21.497Z,69866.09
2022-11-02T00:27:49.096Z,69889.50
2022-11-02T00:30:16.685Z,69866.69
2022-11-02T00:32:44.123Z,69871.41
2022-11-02T00:35:11.713Z,69893.91
2022-11-02T00:37:39.105Z,69864.34
2022-11-02T00:40:07.114Z,69881.31
2022-11-02T00:42:34.478Z,69851.50
2022-11-02T00:45:02.211Z,69872.25
2022-11-02T00:47:29.613Z,69870.22
2022-11-02T00:49:56.946Z,69853.56
2022-11-02T00:52:24.598Z,69861.47
2022-11-02T00:54:52.942Z,69831.66
2022-11-02T00:57:20.393Z,69844.53
2022-11-02T00:59:48.176Z,69828.75
2022-11-02T01:02:18.113Z,69840.44
2022-11-02T01:04:45.504Z,69869.69
2022-11-02T01:07:12.824Z,69829.94
2022-11-02T01:09:40.269Z,69835.81
2022-11-02T01:12:07.974Z,69834.94
2022-11-02T01:14:35.837Z,69863.28
2022-11-02T01:17:04.743Z,69849.25
2022-11-02T01:19:32.458Z,69793.72
2022-11-02T01:21:59.867Z,69859.19
2022-11-02T01:24:27.790Z,69807.44
2022-11-02T01:26:55.199Z,69837.56
2022-11-02T01:29:22.477Z,69837.88
2022-11-02T01:31:49.938Z,69820.63
2022-11-02T01:34:17.737Z,69851.91
2022-11-02T01:36:46.593Z,69851.03
2022-11-02T01:39:17.359Z,69818.59
2022-11-02T01:41:45.583Z,69817.69
2022-11-02T01:44:25.395Z,69808.66
2022-11-02T01:46:55.413Z,69803.97
2022-11-02T01:49:23.571Z,69811.28
2022-11-02T01:51:58.772Z,69820.63
2022-11-02T01:54:29.770Z,69827.06
2022-11-02T01:57:12.803Z,69772.09
2022-11-02T01:59:53.898Z,69777.94
2022-11-02T02:02:24.571Z,69787.31
2022-11-02T02:04:59.330Z,69816.88
2022-11-02T02:07:28.164Z,69813.94
2022-11-02T02:09:56.722Z,69798.75
2022-11-02T02:12:25.451Z,69782.09
2022-11-02T02:14:53.700Z,69826.81
2022-11-02T02:17:38.128Z,69794.34
2022-11-02T02:20:24.711Z,69775.06
2022-11-02T02:23:13.859Z,69780.94
2022-11-02T02:26:12.116Z,69781.25
2022-11-02T02:29:01.108Z,69808.13
2022-11-02T02:31:47.089Z,69778.31
2022-11-02T02:34:17.265Z,69788.28
2022-11-02T02:37:06.946Z,69780.41
2022-11-02T02:40:00.431Z,69754.09
2022-11-02T02:42:44.097Z,69770.16
2022-11-02T02:45:26.526Z,69781.56
2022-11-02T02:48:15.067Z,69765.81
2022-11-02T02:50:50.877Z,69769.91
2022-11-02T02:53:34.180Z,69793.88
2022-11-02T02:56:04.550Z,69726.41
2022-11-02T02:58:38.853Z,69731.41
2022-11-02T03:01:10.989Z,69733.75
2022-11-02T03:03:41.727Z,69730.84
2022-11-02T03:06:21.224Z,69728.22
2022-11-02T03:09:32.736Z,69755.69
2022-11-02T03:12:13.137Z,69727.34
2022-11-02T03:14:46.573Z,69724.72
2022-11-02T03:17:24.627Z,69730.28
2022-11-02T03:20:07.612Z,69718.88
2022-11-02T03:22:46.109Z,69739.63
2022-11-02T03:25:37.383Z,69736.16
2022-11-02T03:28:12.666Z,69699.94
2022-11-02T03:30:54.419Z,69735.84
2022-11-02T03:33:38.818Z,69698.78
2022-11-02T03:36:12.848Z,69690.63
2022-11-02T03:38:58.998Z,69712.81
2022-11-02T03:41:28.371Z,69686.53
2022-11-02T03:44:02.838Z,69708.72
2022-11-02T03:46:34.297Z,69713.38
2022-11-02T03:49:08.592Z,69698.78
2022-11-02T03:51:40.999Z,69668.72
2022-11-02T03:54:17.499Z,69706.41
2022-11-02T03:56:49.835Z,69675.47
2022-11-02T03:59:18.089Z,69693.28
2022-11-02T04:01:50.446Z,69694.16
2022-11-02T04:04:20.071Z,69690.34
2022-11-02T04:06:49.138Z,69692.38
2022-11-02T04:09:18.352Z,69705.81
2022-11-02T04:12:04.632Z,69669.03
2022-11-02T04:14:38.752Z,69688.03
2022-11-02T04:20:08.517Z,69685.72
2022-11-02T04:22:54.477Z,69692.41
2022-11-02T04:25:22.277Z,69690.09
2022-11-02T04:28:14.768Z,69678.72
2022-11-02T04:30:59.892Z,69681.94
2022-11-02T04:33:34.385Z,69675.81
2022-11-02T04:36:08.397Z,69682.78
2022-11-02T04:38:40.288Z,69668.50
2022-11-02T04:41:38.123Z,69676.09
2022-11-02T04:44:14.614Z,69650.41
2022-11-02T04:46:45.374Z,69672.31
2022-11-02T04:49:14.671Z,69686.31
2022-11-02T04:51:47.306Z,69680.50
2022-11-02T04:54:18.701Z,69688.69
2022-11-02T04:56:48.048Z,69656.88
2022-11-02T04:59:16.643Z,69650.44
2022-11-02T05:01:44.111Z,69649.28
2022-11-02T05:04:11.606Z,69638.78
2022-11-02T05:06:40.082Z,69646.34
2022-11-02T05:09:08.899Z,69669.72
2022-11-02T05:11:38.537Z,69645.47
2022-11-02T05:14:06.694Z,69655.69
2022-11-02T05:16:34.219Z,69663.00
2022-11-02T05:19:04.530Z,69656.25
2022-11-02T05:21:34.620Z,69627.97
2022-11-02T05:24:03.960Z,69642.88
2022-11-02T05:26:31.670Z,69646.94
2022-11-02T05:28:59.498Z,69664.47
2022-11-02T05:31:26.841Z,69625.38
2022-11-02T05:33:54.136Z,69633.56
2022-11-02T05:36:22.865Z,69635.31
2022-11-02T05:38:55.723Z,69657.75
2022-11-02T05:41:24.217Z,69682.50
2022-11-02T05:43:54.673Z,69641.38
2022-11-02T05:46:24.005Z,69639.34
2022-11-02T05:48:51.306Z,69666.78
2022-11-02T05:51:18.621Z,69606.13
2022-11-02T05:53:45.950Z,69661.88
2022-11-02T05:56:14.592Z,69599.19
2022-11-02T05:58:42.366Z,69615.25
2022-11-02T06:01:10.597Z,69585.19
2022-11-02T06:03:38.400Z,69626.03
2022-11-02T06:06:09.661Z,69617.88
2022-11-02T06:08:38.895Z,69599.19
2022-11-02T06:11:08.321Z,69568.28
2022-11-02T06:13:36.698Z,69593.34
2022-11-02T06:16:06.323Z,69602.22
2022-11-02T06:18:33.687Z,69627.19
2022-11-02T06:21:01.425Z,69622.53
2022-11-02T06:23:29.695Z,69588.69
2022-11-02T06:25:59.677Z,69580.56
2022-11-02T06:28:28.166Z,69612.03
2022-11-02T06:30:56.330Z,69621.38
2022-11-02T06:33:23.914Z,69618.72
2022-11-02T06:35:53.405Z,69652.22
2022-11-02T06:38:21.216Z,69654.84
2022-11-02T06:41:06.727Z,69659.19
2022-11-02T06:43:38.276Z,69659.47
2022-11-02T06:46:06.392Z,69663.53
2022-11-02T06:48:35.621Z,69649.47
2022-11-02T06:51:04.581Z,69677.75
2022-11-02T06:53:32.096Z,69706.91
2022-11-02T06:56:00.059Z,69737.88
2022-11-02T06:58:27.629Z,69709.75
2022-11-02T07:01:02.193Z,69714.72
2022-11-02T07:03:30.672Z,69733.38
2022-11-02T07:05:58.011Z,69707.09
2022-11-02T07:08:25.743Z,69722.53
2022-11-02T07:10:53.465Z,69738.28
2022-11-02T07:13:20.788Z,69756.09
2022-11-02T07:15:50.893Z,69767.50
2022-11-02T07:18:18.204Z,69763.13
2022-11-02T07:20:45.565Z,69775.69
2022-11-02T07:23:13.194Z,69756.97
2022-11-02T07:25:41.529Z,69725.38
2022-11-02T07:28:10.012Z,69756.97
2022-11-02T07:30:37.517Z,69808.41
2022-11-02T07:33:05.246Z,69783.53
2022-11-02T07:35:34.227Z,69821.81
2022-11-02T07:38:06.816Z,69779.41
2022-11-02T07:40:36.250Z,69796.63
2022-11-02T07:43:04.705Z,69822.31
2022-11-02T07:45:54.446Z,69878.72
2022-11-02T07:48:21.810Z,69874.00
2022-11-02T07:50:49.161Z,69852.59
2022-11-02T07:53:16.535Z,69884.16
2022-11-02T07:55:44.139Z,69893.50
2022-11-02T07:58:15.236Z,69915.97
2022-11-02T08:00:43.289Z,69914.47
2022-11-02T08:03:12.260Z,69899.78
2022-11-02T08:05:42.806Z,69953.63
2022-11-02T08:08:16.028Z,69960.00
2022-11-02T08:10:44.610Z,69964.03
2022-11-02T08:13:15.111Z,69987.44
2022-11-02T08:15:42.616Z,70027.25
2022-11-02T08:18:16.284Z,69995.25
2022-11-02T08:20:45.840Z,70058.25
2022-11-02T08:23:14.389Z,70080.50
2022-11-02T08:25:42.436Z,70062.84
2022-11-02T08:28:15.294Z,70073.94
2022-11-02T08:30:42.822Z,70119.94
2022-11-02T08:33:15.452Z,70126.63
2022-11-02T08:35:44.717Z,70114.78
2022-11-02T08:38:12.630Z,70157.88
2022-11-02T08:40:40.364Z,70167.44
2022-11-02T08:43:10.167Z,70204.91
2022-11-02T08:46:12.505Z,70255.38
2022-11-02T08:48:27.671Z,70233.56
2022-11-02T08:50:56.312Z,70275.84
2022-11-02T08:53:23.740Z,70302.81
2022-11-02T08:55:51.167Z,70275.09
2022-11-02T08:58:18.708Z,70342.09
2022-11-02T09:00:46.291Z,70339.97
2022-11-02T09:03:15.723Z,70381.41
2022-11-02T09:05:45.734Z,70376.56
2022-11-02T09:08:16.943Z,70452.75
2022-11-02T09:10:46.160Z,70527.97
2022-11-02T09:13:15.223Z,70528.97
2022-11-02T09:15:42.825Z,70584.31
2022-11-02T09:18:11.199Z,70603.44
2022-11-02T09:20:38.911Z,70603.03
2022-11-02T09:23:06.396Z,70631.94
2022-11-02T09:25:34.289Z,70634.25
2022-11-02T09:28:02.280Z,70645.94
2022-11-02T09:30:29.793Z,70675.94
2022-11-02T09:33:02.472Z,70666.47
2022-11-02T09:35:33.858Z,70697.66
2022-11-02T09:38:01.567Z,70731.84
2022-11-02T09:40:39.984Z,70750.81
2022-11-02T09:43:20.911Z,70746.03
2022-11-02T09:46:03.298Z,70734.66
2022-11-02T09:48:36.728Z,70792.28
2022-11-02T09:51:17.826Z,70772.69
2022-11-02T09:54:05.394Z,70783.53
2022-11-02T09:56:34.862Z,70759.88
2022-11-02T09:59:11.656Z,70736.31
2022-11-02T10:01:51.887Z,70709.25
2022-11-02T10:04:42.967Z,70733.59
2022-11-02T10:07:29.656Z,70719.09
2022-11-02T10:10:11.293Z,70727.34
2022-11-02T10:12:50.487Z,70734.69
2022-11-02T10:15:35.450Z,70774.00
2022-11-02T10:18:04.824Z,70771.31
2022-11-02T10:20:35.729Z,70765.69
2022-11-02T10:23:08.757Z,70754.31
2022-11-02T10:25:37.573Z,70794.69
2022-11-02T10:28:15.515Z,70801.78
2022-11-02T10:30:45.302Z,71043.59
2022-11-02T10:33:20.342Z,71112.84
2022-11-02T10:36:19.335Z,71324.38
2022-11-02T10:39:05.492Z,71443.78
2022-11-02T10:41:44.525Z,71612.97
2022-11-02T10:44:45.131Z,71768.53
2022-11-02T10:47:17.673Z,71897.31
2022-11-02T10:50:30.329Z,71877.75
2022-11-02T10:53:27.475Z,71569.88
2022-11-02T10:56:22.316Z,71678.00
2022-11-02T10:59:12.661Z,71613.34
2022-11-02T11:01:48.131Z,71754.09
2022-11-02T11:04:26.943Z,72034.38
2022-11-02T11:06:56.674Z,72119.13
2022-11-02T11:09:48.321Z,71971.94
2022-11-02T11:12:25.915Z,72191.13
2022-11-02T11:20:35.534Z,71922.38
2022-11-02T11:23:22.766Z,71891.34
2022-11-02T11:25:57.763Z,72270.47
2022-11-02T11:28:52.576Z,72095.69
2022-11-02T11:31:20.684Z,71918.22
2022-11-02T11:34:01.718Z,72097.03
2022-11-02T11:36:34.598Z,72237.31
2022-11-02T11:39:06.928Z,72017.56
2022-11-02T11:41:39.640Z,71929.63
2022-11-02T11:44:14.563Z,72143.22
2022-11-02T11:46:48.719Z,71842.06
2022-11-02T11:52:30.912Z,71819.94
2022-11-02T11:55:01.621Z,71880.28
2022-11-02T12:00:29.104Z,71725.19
2022-11-02T12:03:06.606Z,71791.63
2022-11-02T12:06:07.065Z,71849.69
2022-11-02T12:09:03.154Z,72078.81
2022-11-02T12:11:37.907Z,72104.91
2022-11-02T12:14:37.647Z,72132.75
2022-11-02T12:17:15.392Z,72155.88
2022-11-02T12:20:21.017Z,71671.78
2022-11-02T12:23:17.801Z,71360.94
2022-11-02T12:26:05.897Z,71080.00
2022-11-02T12:28:42.507Z,71070.09
2022-11-02T12:31:34.632Z,71027.53
2022-11-02T12:34:13.280Z,70978.66
2022-11-02T12:40:07.724Z,70902.19
2022-11-02T12:43:07.614Z,70935.28
2022-11-02T12:45:59.836Z,70956.31
2022-11-02T12:49:08.241Z,70895.47
2022-11-02T12:51:43.163Z,70886.88
2022-11-02T12:54:25.193Z,70903.47
2022-11-02T12:56:54.600Z,70835.25
2022-11-02T12:59:23.895Z,70898.66
2022-11-02T13:01:57.597Z,70865.84
2022-11-02T13:04:39.709Z,70864.53
2022-11-02T13:07:14.567Z,70817.41
2022-11-02T13:10:03.312Z,70803.50
2022-11-02T13:12:36.224Z,70797.03
2022-11-02T13:15:10.870Z,70826.88
2022-11-02T13:17:50.005Z,70868.19
2022-11-02T13:20:25.884Z,70870.19
2022-11-02T13:23:00.814Z,70838.34
2022-11-02T13:25:47.788Z,70841.03
2022-11-02T13:28:34.093Z,70805.88
2022-11-02T13:31:10.071Z,70818.59
2022-11-02T13:33:52.386Z,70816.34
2022-11-02T13:36:20.038Z,70850.06
2022-11-02T13:39:20.949Z,70800.75
2022-11-02T13:41:48.359Z,70808.91
2022-11-02T13:44:36.573Z,70823.72
2022-11-02T13:47:09.047Z,70764.66
2022-11-02T13:49:40.350Z,70743.09
2022-11-02T13:52:17.769Z,70739.34
2022-11-02T13:54:53.507Z,70755.56
2022-11-02T13:57:47.779Z,70713.97
2022-11-02T14:00:24.371Z,70735.91
2022-11-02T14:03:13.316Z,70717.59
2022-11-02T14:05:57.467Z,70719.41
2022-11-02T14:08:36.313Z,70686.34
2022-11-02T14:11:35.940Z,70741.31
2022-11-02T14:14:03.242Z,70723.84
2022-11-02T14:16:49.115Z,70713.72
2022-11-02T14:19:22.525Z,70736.50
2022-11-02T14:21:52.706Z,70752.13
2022-11-02T14:24:38.242Z,70760.91
2022-11-02T14:27:14.760Z,70765.31
2022-11-02T14:29:45.264Z,70744.97
2022-11-02T14:32:21.424Z,70717.66
2022-11-02T14:35:13.655Z,70711.16
2022-11-02T14:38:06.143Z,70734.00
2022-11-02T14:40:49.690Z,70702.69
2022-11-02T14:43:46.549Z,70667.81
2022-11-02T14:46:38.461Z,70725.78
2022-11-02T14:49:15.716Z,70676.72
2022-11-02T14:51:44.238Z,70655.19
2022-11-02T14:54:20.374Z,70678.22
2022-11-02T14:57:17.039Z,70640.19
2022-11-02T14:59:51.369Z,70667.19
2022-11-02T15:02:24.623Z,70638.31
2022-11-02T15:04:56.257Z,70613.53
2022-11-02T15:07:28.890Z,70625.38
2022-11-02T15:09:59.591Z,70605.88
2022-11-02T15:12:38.638Z,70592.94
2022-11-02T15:15:05.956Z,70617.13
2022-11-02T15:17:33.659Z,70584.09
2022-11-02T15:20:16.345Z,70617.22
2022-11-02T15:22:55.245Z,70611.00
2022-11-02T15:25:29.471Z,70571.25
2022-11-02T15:28:04.492Z,70557.09
2022-11-02T15:30:33.173Z,70571.31
2022-11-02T15:33:04.526Z,70566.63
2022-11-02T15:35:37.806Z,70537.75
2022-11-02T15:38:30.398Z,70562.59
2022-11-02T15:41:23.044Z,70540.84
2022-11-02T15:43:50.640Z,70550.88
2022-11-02T15:46:32.325Z,70560.34
2022-11-02T15:49:29.571Z,70522.06
2022-11-02T15:52:07.689Z,70530.94
2022-11-02T15:55:23.414Z,70480.22
2022-11-02T15:57:59.987Z,70514.78
2022-11-02T16:00:30.405Z,70488.53
2022-11-02T16:03:07.162Z,70467.66
2022-11-02T16:05:43.939Z,70494.22
2022-11-02T16:08:32.326Z,70463.56
2022-11-02T16:11:18.449Z,70468.94
2022-11-02T16:14:03.820Z,70430.63
2022-11-02T16:16:50.108Z,70447.41
2022-11-02T16:19:21.703Z,70410.56
2022-11-02T16:21:50.125Z,70423.53
2022-11-02T16:24:18.769Z,70464.53
2022-11-02T16:26:47.853Z,70484.59
2022-11-02T16:29:32.293Z,70438.94
2022-11-02T16:32:00.344Z,70439.28
2022-11-02T16:34:31.611Z,70433.72
2022-11-02T16:37:03.774Z,70410.88
2022-11-02T16:39:39.636Z,70415.16
2022-11-02T16:42:21.601Z,70403.97
2022-11-02T16:45:05.069Z,70420.56
2022-11-02T16:47:40.020Z,70417.97
2022-11-02T16:50:25.387Z,70364.69
2022-11-02T16:53:04.108Z,70364.13
2022-11-02T16:55:43.282Z,70355.38
2022-11-02T16:58:22.507Z,70332.44
2022-11-02T17:00:59.575Z,70328.34
2022-11-02T17:03:31.707Z,70353.41
2022-11-02T17:06:02.888Z,70326.06
2022-11-02T17:08:36.775Z,70303.16
2022-11-02T17:11:06.847Z,70342.06
2022-11-02T17:13:44.597Z,70319.44
2022-11-02T17:16:12.871Z,70289.78
2022-11-02T17:18:40.335Z,70314.22
2022-11-02T17:21:14.027Z,70263.34
2022-11-02T17:23:46.832Z,70296.31
2022-11-02T17:26:23.353Z,70252.84
2022-11-02T17:28:52.795Z,70245.81
2022-11-02T17:31:36.008Z,70271.19
2022-11-02T17:34:10.163Z,70205.31
2022-11-02T17:36:49.094Z,70242.69
2022-11-02T17:39:18.225Z,70193.66
2022-11-02T17:42:11.579Z,70183.13
2022-11-02T17:44:39.662Z,70195.53
2022-11-02T17:47:12.507Z,70181.47
2022-11-02T17:49:39.990Z,70138.09
2022-11-02T17:52:10.568Z,70164.88
2022-11-02T17:54:38.178Z,70123.47
2022-11-02T17:57:13.417Z,70130.00
2022-11-02T17:59:40.992Z,70154.13
2022-11-02T18:02:15.729Z,70123.31
2022-11-02T18:07:16.044Z,70065.88
2022-11-02T18:09:43.471Z,70075.00
2022-11-02T18:12:14.798Z,70076.22
2022-11-02T18:14:42.610Z,70066.25
2022-11-02T18:17:10.183Z,70076.53
2022-11-02T18:19:37.598Z,70017.59
2022-11-02T18:22:05.016Z,70061.63
2022-11-02T18:24:32.443Z,70066.03
2022-11-02T18:26:59.819Z,70073.41
2022-11-02T18:29:27.104Z,69996.63
2022-11-02T18:31:54.592Z,70034.16
2022-11-02T18:34:21.998Z,70024.22
2022-11-02T18:36:49.345Z,70013.16
2022-11-02T18:39:16.733Z,70003.81
2022-11-02T18:41:44.104Z,69971.00
2022-11-02T18:44:15.126Z,69967.50
2022-11-02T18:46:43.121Z,69990.09
2022-11-02T18:49:10.601Z,69991.28
2022-11-02T18:51:38.041Z,69930.66
2022-11-02T18:54:06.651Z,69935.38
2022-11-02T18:56:34.285Z,69946.81
2022-11-02T18:59:01.896Z,69949.75
2022-11-02T19:01:29.436Z,69908.47
2022-11-02T19:03:58.819Z,69933.72
2022-11-02T19:06:47.093Z,69929.31
2022-11-02T19:09:18.713Z,69904.44
2022-11-02T19:11:56.878Z,69895.06
2022-11-02T19:14:24.900Z,69899.78
2022-11-02T19:16:52.601Z,69890.75
2022-11-02T19:19:20.372Z,69895.47
2022-11-02T19:21:48.620Z,69863.22
2022-11-02T19:24:15.984Z,69872.34
2022-11-02T19:26:43.406Z,69873.19
2022-11-02T19:29:10.757Z,69858.91
2022-11-02T19:31:38.333Z,69850.75
2022-11-02T19:34:06.262Z,69853.72
2022-11-02T19:36:33.895Z,69851.38
2022-11-02T19:39:03.398Z,69844.06
2022-11-02T19:41:31.839Z,69826.25
2022-11-02T19:43:59.436Z,69833.00
2022-11-02T19:46:27.431Z,69856.69
2022-11-02T19:48:57.085Z,69847.91
2022-11-02T19:51:29.866Z,69833.28
2022-11-02T19:53:59.881Z,69837.41
2022-11-02T19:56:30.128Z,69815.75
2022-11-02T19:58:57.869Z,69842.41
2022-11-02T20:01:30.958Z,69806.16
2022-11-02T20:03:59.106Z,69767.88
2022-11-02T20:06:34.219Z,69810.56
2022-11-02T20:09:04.358Z,69804.41
2022-11-02T20:11:32.156Z,69816.38
2022-11-02T20:14:01.635Z,69816.97
2022-11-02T20:16:29.486Z,69798.28
2022-11-02T20:18:57.802Z,69790.69
2022-11-02T20:21:34.475Z,69807.03
2022-11-02T20:24:06.375Z,69805.31
2022-11-02T20:26:35.973Z,69771.09
2022-11-02T20:29:05.378Z,69799.22
2022-11-02T20:31:35.807Z,69762.13
2022-11-02T20:34:04.699Z,69800.16
2022-11-02T20:36:32.181Z,69741.69
2022-11-02T20:38:59.712Z,69755.72
2022-11-02T20:41:27.129Z,69766.28
2022-11-02T20:43:55.715Z,69703.19
2022-11-02T20:46:42.624Z,69706.69
2022-11-02T20:49:21.873Z,69724.25
2022-11-02T20:51:58.677Z,69724.84
2022-11-02T20:54:29.451Z,69725.41
2022-11-02T20:57:00.484Z,69709.38
2022-11-02T20:59:28.077Z,69700.34
2022-11-02T21:01:55.593Z,69715.25
2022-11-02T21:04:23.430Z,69731.03
2022-11-02T21:06:51.737Z,69706.47
2022-11-02T21:09:19.657Z,69693.34
2022-11-02T21:12:22.359Z,69677.28
2022-11-02T21:14:49.809Z,69663.59
2022-11-02T21:17:17.528Z,69692.25
2022-11-02T21:19:45.052Z,69710.66
2022-11-02T21:22:14.791Z,69662.72
2022-11-02T21:24:42.345Z,69664.81
2022-11-02T21:27:09.759Z,69712.13
2022-11-02T21:29:39.591Z,69653.72
2022-11-02T21:32:08.258Z,69661.91
2022-11-02T21:34:36.079Z,69638.00
2022-11-02T21:37:06.907Z,69663.72
2022-11-02T21:39:36.129Z,69673.69
2022-11-02T21:42:05.007Z,69614.44
2022-11-02T21:44:32.419Z,69632.22
2022-11-02T21:47:00.105Z,69617.06
2022-11-02T21:49:27.640Z,69627.25
2022-11-02T21:51:55.027Z,69641.00
2022-11-02T21:54:22.604Z,69607.75
2022-11-02T21:56:50.495Z,69581.50
2022-11-02T21:59:18.103Z,69611.84
2022-11-02T22:01:47.256Z,69592.59
2022-11-02T22:04:21.752Z,69582.69
2022-11-02T22:06:50.033Z,69638.16
2022-11-02T22:09:17.848Z,69593.50
2022-11-02T22:11:45.542Z,69599.94
2022-11-02T22:14:13.515Z,69593.22
2022-11-02T22:16:44.263Z,69599.34
2022-11-02T22:19:13.647Z,69620.09
2022-11-02T22:21:43.864Z,69601.44
2022-11-02T22:24:11.776Z,69581.59
2022-11-02T22:26:40.049Z,69567.59
2022-11-02T22:29:08.475Z,69589.50
2022-11-02T22:31:38.931Z,69550.72
2022-11-02T22:34:08.526Z,69569.97
2022-11-02T22:36:38.089Z,69590.44
2022-11-02T22:39:08.171Z,69581.66
2022-11-02T22:41:46.437Z,69578.75
2022-11-02T22:44:16.361Z,69561.25
2022-11-02T22:46:46.332Z,69582.84
2022-11-02T22:49:15.356Z,69593.94
2022-11-02T22:51:48.232Z,69509.34
2022-11-02T22:54:19.734Z,69537.69
2022-11-02T22:56:48.869Z,69516.97
2022-11-02T22:59:16.764Z,69542.06
2022-11-02T23:01:44.584Z,69490.22
2022-11-02T23:04:12.658Z,69481.78
2022-11-02T23:06:40.492Z,69498.38
2022-11-02T23:09:10.270Z,69520.56
2022-11-02T23:11:37.930Z,69512.13
2022-11-02T23:14:10.752Z,69487.34
2022-11-02T23:16:41.216Z,69505.44
2022-11-02T23:19:22.147Z,69526.41
2022-11-02T23:22:23.909Z,69494.66
2022-11-02T23:25:11.029Z,69493.75
2022-11-02T23:28:17.563Z,69479.78
2022-11-02T23:31:11.304Z,69457.66
2022-11-02T23:33:40.761Z,69505.16
2022-11-02T23:36:12.733Z,69468.16
2022-11-02T23:39:01.257Z,69488.25
2022-11-02T23:41:30.193Z,69481.28
2022-11-02T23:44:14.204Z,69503.13
2022-11-02T23:46:46.936Z,69471.09
2022-11-02T23:49:16.601Z,69493.56
2022-11-02T23:52:02.472Z,69483.34
2022-11-02T23:54:48.411Z,69487.44
2022-11-02T23:57:15.852Z,69457.72
2022-11-02T23:59:43.177Z,69457.72
